Time;durP1;ratioP1;P1;durP2;ratioP2;P2;SDS_P1;SDS_P2;PMS_P1;PMS_P2;Temp;Humidity;BMP_temperature;BMP_pressure;BME280_temperature;BME280_humidity;BME280_pressure;Samples;Min_cycle;Max_cycle;Signal;HPM_P1;HPM_P2
2023/08/01 00:00:07;;;;;;;4.30;1.52;;;18.70;65.70;;;;;;6132347;23;20053;-92
2023/08/01 00:02:44;;;;;;;6.37;1.57;;;18.70;65.80;;;;;;6157170;23;20021;-92
2023/08/01 00:05:20;;;;;;;6.82;1.50;;;18.70;65.80;;;;;;6132470;23;20456;-91
2023/08/01 00:07:49;;;;;;;7.63;1.60;;;18.70;65.90;;;;;;6180756;23;20021;-91
2023/08/01 00:10:19;;;;;;;7.40;1.20;;;18.60;65.90;;;;;;6157147;23;20013;-91
2023/08/01 00:12:46;;;;;;;4.78;1.50;;;18.60;65.80;;;;;;6156013;23;20024;-90
2023/08/01 00:15:13;;;;;;;5.10;1.20;;;18.60;65.70;;;;;;6131945;23;20053;-91
2023/08/01 00:17:43;;;;;;;4.78;1.20;;;18.60;65.70;;;;;;6155920;23;20025;-92
2023/08/01 00:20:11;;;;;;;4.45;1.20;;;18.60;65.90;;;;;;6156303;23;20045;-91
2023/08/01 00:22:39;;;;;;;6.07;1.30;;;18.60;66.00;;;;;;6156342;23;20037;-92
2023/08/01 00:25:07;;;;;;;4.93;1.20;;;18.60;66.00;;;;;;6156248;23;20024;-91
2023/08/01 00:27:37;;;;;;;7.00;1.30;;;18.60;65.80;;;;;;6131938;23;20124;-90
2023/08/01 00:30:08;;;;;;;5.32;1.30;;;18.50;66.10;;;;;;6132155;23;20013;-91
2023/08/01 00:32:38;;;;;;;7.45;1.50;;;18.50;65.80;;;;;;6132778;23;20044;-90
2023/08/01 00:35:05;;;;;;;6.05;1.40;;;18.60;65.90;;;;;;6131760;23;20022;-90
2023/08/01 00:37:37;;;;;;;5.88;1.33;;;18.60;65.60;;;;;;6156041;23;20106;-91
2023/08/01 00:40:05;;;;;;;5.17;1.00;;;18.60;66.00;;;;;;6156477;23;20104;-90
2023/08/01 00:42:32;;;;;;;6.78;1.40;;;18.60;65.80;;;;;;6131593;23;20068;-91
2023/08/01 00:45:00;;;;;;;4.50;1.30;;;18.60;65.80;;;;;;6156911;23;20026;-91
2023/08/01 00:47:27;;;;;;;5.32;1.50;;;18.60;65.80;;;;;;6131721;23;20018;-91
2023/08/01 00:49:58;;;;;;;7.40;1.10;;;18.60;65.80;;;;;;6147695;23;20022;-91
2023/08/01 00:52:25;;;;;;;6.87;1.50;;;18.60;65.70;;;;;;6131922;23;20021;-90
2023/08/01 00:54:52;;;;;;;5.68;1.38;;;18.60;65.80;;;;;;6106623;23;20022;-91
2023/08/01 00:57:20;;;;;;;4.60;1.55;;;18.60;65.70;;;;;;6107178;23;20017;-91
2023/08/01 00:59:47;;;;;;;7.05;1.13;;;18.60;65.60;;;;;;6107487;23;20021;-90
2023/08/01 01:02:14;;;;;;;7.15;1.50;;;18.60;65.60;;;;;;6106857;23;20017;-90
2023/08/01 01:04:41;;;;;;;4.57;1.20;;;18.60;65.60;;;;;;6131396;23;20028;-90
2023/08/01 01:07:09;;;;;;;7.05;1.83;;;18.60;65.70;;;;;;6105985;23;20018;-90
2023/08/01 01:09:36;;;;;;;4.68;1.20;;;18.50;65.80;;;;;;6131478;23;20025;-90
2023/08/01 01:12:04;;;;;;;7.47;1.30;;;18.50;65.70;;;;;;6107173;23;20088;-90
2023/08/01 01:14:31;;;;;;;6.70;1.20;;;18.50;66.10;;;;;;6102565;23;20025;-90
2023/08/01 01:16:59;;;;;;;5.47;1.40;;;18.50;66.20;;;;;;6128558;23;20041;-90
2023/08/01 01:19:27;;;;;;;4.97;1.58;;;18.50;66.20;;;;;;6107115;23;20029;-91
2023/08/01 01:22:01;;;;;;;5.85;1.40;;;18.40;66.20;;;;;;6130818;23;20021;-89
2023/08/01 01:24:32;;;;;;;4.97;1.65;;;18.50;66.20;;;;;;6130941;23;20021;-90
2023/08/01 01:26:59;;;;;;;4.65;1.20;;;18.40;66.10;;;;;;6131142;23;20025;-90
2023/08/01 01:29:28;;;;;;;4.47;1.20;;;18.40;66.30;;;;;;6131187;23;20018;-90
2023/08/01 01:31:57;;;;;;;6.10;1.50;;;18.30;66.70;;;;;;6103203;23;20109;-90
2023/08/01 01:34:24;;;;;;;7.82;1.50;;;18.30;66.60;;;;;;6107195;23;20026;-90
2023/08/01 01:36:52;;;;;;;4.38;1.20;;;18.30;66.50;;;;;;6131266;23;20021;-90
2023/08/01 01:39:19;;;;;;;5.35;1.40;;;18.30;66.80;;;;;;6106909;23;20052;-90
2023/08/01 01:41:47;;;;;;;5.17;1.63;;;18.20;66.90;;;;;;6106967;23;20018;-91
2023/08/01 01:44:14;;;;;;;6.43;1.23;;;18.20;67.00;;;;;;6131175;23;20021;-90
2023/08/01 01:46:42;;;;;;;5.40;1.45;;;18.10;67.20;;;;;;6107101;23;20017;-91
2023/08/01 01:49:10;;;;;;;6.80;1.33;;;18.10;67.20;;;;;;6131268;23;20027;-90
2023/08/01 01:51:37;;;;;;;4.03;1.27;;;18.10;67.20;;;;;;6130976;23;20056;-90
2023/08/01 01:54:04;;;;;;;5.63;1.33;;;18.10;67.30;;;;;;6131278;23;20043;-91
2023/08/01 01:56:32;;;;;;;5.00;1.40;;;18.10;67.20;;;;;;6130933;23;20029;-89
2023/08/01 01:58:59;;;;;;;8.68;1.83;;;18.10;67.20;;;;;;6108113;23;20022;-91
2023/08/01 02:01:26;;;;;;;8.13;1.58;;;18.10;67.30;;;;;;6130970;23;20017;-90
2023/08/01 02:03:54;;;;;;;6.78;1.98;;;18.00;67.30;;;;;;6130514;23;20020;-90
2023/08/01 02:06:22;;;;;;;4.60;1.60;;;18.00;67.60;;;;;;6132450;23;20022;-90
2023/08/01 02:08:49;;;;;;;5.57;1.88;;;18.00;67.70;;;;;;6132985;23;20097;-90
2023/08/01 02:11:17;;;;;;;6.25;1.42;;;18.00;67.70;;;;;;6108525;23;20032;-89
2023/08/01 02:13:44;;;;;;;5.43;1.58;;;18.00;67.80;;;;;;6133229;23;20021;-89
2023/08/01 02:16:11;;;;;;;7.53;1.55;;;18.00;67.90;;;;;;6108383;23;20341;-90
2023/08/01 02:18:38;;;;;;;6.80;1.57;;;18.00;67.70;;;;;;6132973;23;20452;-90
2023/08/01 02:21:08;;;;;;;8.95;1.50;;;18.00;67.70;;;;;;6132421;23;20018;-90
2023/08/01 02:23:37;;;;;;;5.25;1.60;;;18.00;67.60;;;;;;6108895;23;20025;-90
2023/08/01 02:26:04;;;;;;;6.10;1.42;;;18.00;67.70;;;;;;6108626;23;20045;-90
2023/08/01 02:28:32;;;;;;;5.43;1.25;;;18.00;67.40;;;;;;6108211;23;20048;-90
2023/08/01 02:30:59;;;;;;;5.17;1.40;;;18.00;67.40;;;;;;6132729;23;20021;-90
2023/08/01 02:33:26;;;;;;;6.78;1.35;;;18.00;67.80;;;;;;6132893;23;20048;-90
2023/08/01 02:35:54;;;;;;;6.32;1.50;;;18.00;67.80;;;;;;6125043;23;20026;-89
2023/08/01 02:38:27;;;;;;;5.88;1.60;;;18.00;67.60;;;;;;6109178;23;20052;-89
2023/08/01 02:41:00;;;;;;;5.93;1.35;;;18.00;68.20;;;;;;6133072;23;20084;-89
2023/08/01 02:43:28;;;;;;;4.70;1.20;;;18.00;67.80;;;;;;6133336;23;20021;-90
2023/08/01 02:45:55;;;;;;;5.75;1.70;;;17.90;67.60;;;;;;6108021;23;20371;-89
2023/08/01 02:48:22;;;;;;;7.88;1.83;;;17.90;67.80;;;;;;6132669;23;20013;-89
2023/08/01 02:50:49;;;;;;;4.93;1.20;;;17.90;67.30;;;;;;6108279;23;20026;-89
2023/08/01 02:53:16;;;;;;;5.10;1.33;;;17.80;67.30;;;;;;6133223;23;20041;-90
2023/08/01 02:55:46;;;;;;;4.80;1.53;;;17.90;67.10;;;;;;6133021;23;20044;-89
2023/08/01 02:58:13;;;;;;;5.13;1.20;;;17.90;66.60;;;;;;6133130;23;20029;-89
2023/08/01 03:00:40;;;;;;;5.05;1.17;;;18.00;66.80;;;;;;6133922;23;20108;-89
2023/08/01 03:03:07;;;;;;;6.15;1.60;;;18.00;66.60;;;;;;6133456;23;20017;-89
2023/08/01 03:05:37;;;;;;;6.28;1.40;;;18.00;67.00;;;;;;6133091;23;20017;-89
2023/08/01 03:08:05;;;;;;;4.97;1.13;;;18.00;66.60;;;;;;6108687;23;20116;-89
2023/08/01 03:10:32;;;;;;;4.28;1.40;;;18.00;66.60;;;;;;6132405;23;20017;-89
2023/08/01 03:13:03;;;;;;;4.35;1.00;;;18.00;66.70;;;;;;6132018;23;20021;-89
2023/08/01 03:15:31;;;;;;;5.35;1.55;;;18.00;66.70;;;;;;6107974;23;20470;-89
2023/08/01 03:17:59;;;;;;;4.90;1.40;;;18.00;66.80;;;;;;6131436;23;20028;-89
2023/08/01 03:20:26;;;;;;;6.67;1.37;;;18.00;67.00;;;;;;6132576;23;20032;-88
2023/08/01 03:22:53;;;;;;;6.03;1.50;;;18.00;66.90;;;;;;6132568;23;20021;-89
2023/08/01 03:25:20;;;;;;;4.80;1.55;;;18.00;67.20;;;;;;6132142;23;20104;-89
2023/08/01 03:27:49;;;;;;;5.72;1.77;;;18.00;67.30;;;;;;6132901;23;20021;-89
2023/08/01 03:30:16;;;;;;;7.03;1.33;;;17.90;67.30;;;;;;6131818;23;20045;-89
2023/08/01 03:32:43;;;;;;;4.87;1.43;;;17.80;67.50;;;;;;6131648;23;20056;-89
2023/08/01 03:35:10;;;;;;;6.50;1.50;;;17.80;67.50;;;;;;6107466;23;20100;-89
2023/08/01 03:37:38;;;;;;;5.53;1.40;;;17.80;67.50;;;;;;6131540;23;20436;-89
2023/08/01 03:40:08;;;;;;;4.40;1.40;;;17.80;67.70;;;;;;6107749;23;20463;-90
2023/08/01 03:42:43;;;;;;;5.70;1.30;;;17.80;67.80;;;;;;6144780;23;20395;-93
2023/08/01 03:45:16;;;;;;;6.73;1.50;;;17.80;67.80;;;;;;6113586;23;20444;-93
2023/08/01 03:47:44;;;;;;;6.35;1.38;;;17.80;68.10;;;;;;6133676;23;20025;-90
2023/08/01 03:50:13;;;;;;;4.60;1.30;;;17.80;67.40;;;;;;6109666;23;20025;-92
2023/08/01 03:52:41;;;;;;;6.82;1.42;;;17.80;68.00;;;;;;6134553;23;20123;-92
2023/08/01 03:55:11;;;;;;;4.93;1.20;;;17.80;67.50;;;;;;6108917;23;20085;-88
2023/08/01 03:57:38;;;;;;;6.30;1.40;;;17.90;67.50;;;;;;6131752;23;20025;-88
2023/08/01 04:00:13;;;;;;;6.95;1.40;;;17.90;67.60;;;;;;6131281;23;20021;-87
2023/08/01 04:02:43;;;;;;;6.55;1.23;;;17.90;67.70;;;;;;6131128;23;20021;-88
2023/08/01 04:05:15;;;;;;;4.72;1.10;;;18.00;67.20;;;;;;6131479;23;20444;-88
2023/08/01 04:07:42;;;;;;;5.45;1.42;;;18.00;67.30;;;;;;6106821;23;20025;-87
2023/08/01 04:10:09;;;;;;;5.87;1.73;;;18.00;67.00;;;;;;6107615;23;20506;-88
2023/08/01 04:12:37;;;;;;;5.38;1.30;;;18.10;66.90;;;;;;6132001;23;20025;-89
2023/08/01 04:15:04;;;;;;;6.43;1.20;;;18.20;67.00;;;;;;6131895;23;20104;-88
2023/08/01 04:17:31;;;;;;;5.30;1.25;;;18.30;66.80;;;;;;6107424;23;20459;-89
2023/08/01 04:19:59;;;;;;;5.30;1.35;;;18.30;66.70;;;;;;6132078;23;20378;-88
2023/08/01 04:22:26;;;;;;;5.00;1.30;;;18.40;66.50;;;;;;6131932;23;20068;-89
2023/08/01 04:24:53;;;;;;;5.28;1.17;;;18.50;66.40;;;;;;6131162;23;20024;-88
2023/08/01 04:27:20;;;;;;;6.20;1.50;;;18.50;66.50;;;;;;6131387;23;20017;-88
2023/08/01 04:29:48;;;;;;;6.05;1.40;;;18.60;66.40;;;;;;6131277;23;20049;-88
2023/08/01 04:32:15;;;;;;;7.05;1.30;;;18.70;66.90;;;;;;6106804;23;20024;-88
2023/08/01 04:34:42;;;;;;;6.67;1.30;;;18.70;66.40;;;;;;6131783;23;20060;-89
2023/08/01 04:37:10;;;;;;;6.80;1.70;;;18.80;66.30;;;;;;6107300;23;20032;-88
2023/08/01 04:39:37;;;;;;;4.43;1.30;;;18.90;66.30;;;;;;6131249;23;20440;-88
2023/08/01 04:42:05;;;;;;;8.35;1.40;;;18.90;66.20;;;;;;6131247;23;20419;-88
2023/08/01 04:44:32;;;;;;;5.95;1.52;;;19.00;66.60;;;;;;6106748;23;20072;-88
2023/08/01 04:46:59;;;;;;;3.80;1.30;;;19.00;65.90;;;;;;6128773;23;20089;-89
2023/08/01 04:49:26;;;;;;;5.20;1.27;;;19.00;66.60;;;;;;6131129;23;20018;-88
2023/08/01 04:51:55;;;;;;;4.20;1.33;;;19.00;66.60;;;;;;6131057;23;20022;-89
2023/08/01 04:54:22;;;;;;;5.55;1.50;;;19.00;67.10;;;;;;6131345;23;20052;-89
2023/08/01 04:56:49;;;;;;;6.05;1.73;;;19.00;67.40;;;;;;6106795;23;20114;-89
2023/08/01 04:59:16;;;;;;;7.60;1.73;;;19.00;67.40;;;;;;6131120;23;20025;-89
2023/08/01 05:01:43;;;;;;;5.30;1.30;;;19.10;67.60;;;;;;6130819;23;20018;-88
2023/08/01 05:04:11;;;;;;;7.13;1.63;;;19.10;67.60;;;;;;6106905;23;20021;-89
2023/08/01 05:06:38;;;;;;;5.30;1.50;;;19.10;67.90;;;;;;6130911;23;20017;-88
2023/08/01 05:09:07;;;;;;;5.45;1.63;;;19.10;68.30;;;;;;6107165;23;20041;-89
2023/08/01 05:11:35;;;;;;;6.17;1.57;;;19.10;68.20;;;;;;6131279;23;20021;-88
2023/08/01 05:14:02;;;;;;;4.60;1.55;;;19.10;68.60;;;;;;6107252;23;20025;-88
2023/08/01 05:16:30;;;;;;;4.95;1.40;;;19.10;68.70;;;;;;6131779;23;20057;-88
2023/08/01 05:18:57;;;;;;;5.30;1.33;;;19.10;68.80;;;;;;6107160;23;20013;-88
2023/08/01 05:21:25;;;;;;;5.50;1.33;;;19.20;69.30;;;;;;6131224;23;20018;-88
2023/08/01 05:23:52;;;;;;;7.50;1.63;;;19.20;69.00;;;;;;6131606;23;20024;-88
2023/08/01 05:26:19;;;;;;;5.05;1.45;;;19.20;69.20;;;;;;6106576;23;20024;-88
2023/08/01 05:28:46;;;;;;;6.60;1.70;;;19.30;69.10;;;;;;6130717;23;20052;-89
2023/08/01 05:31:13;;;;;;;6.18;1.70;;;19.40;68.80;;;;;;6155309;23;20507;-88
2023/08/01 05:33:42;;;;;;;7.15;1.90;;;19.50;69.10;;;;;;6131616;23;20103;-89
2023/08/01 05:36:09;;;;;;;6.37;1.90;;;19.50;69.00;;;;;;6131598;23;20031;-88
2023/08/01 05:38:36;;;;;;;6.55;1.60;;;19.50;69.00;;;;;;6107273;23;20021;-88
2023/08/01 05:41:03;;;;;;;4.85;1.83;;;19.60;69.00;;;;;;6132657;23;20441;-88
2023/08/01 05:43:31;;;;;;;8.68;1.90;;;19.60;68.80;;;;;;6133256;23;20068;-88
2023/08/01 05:45:58;;;;;;;4.43;1.52;;;19.70;69.10;;;;;;6133124;23;20515;-88
2023/08/01 05:48:25;;;;;;;5.27;1.93;;;19.70;69.20;;;;;;6132732;23;20022;-88
2023/08/01 05:50:55;;;;;;;5.15;1.70;;;19.70;69.10;;;;;;6132211;23;20506;-88
2023/08/01 05:53:22;;;;;;;4.50;1.45;;;19.70;69.40;;;;;;6132588;23;20056;-88
2023/08/01 05:55:49;;;;;;;5.72;1.40;;;19.70;69.30;;;;;;6109408;23;20456;-88
2023/08/01 05:58:17;;;;;;;5.05;1.70;;;19.70;69.70;;;;;;6133712;23;20363;-88
2023/08/01 06:00:44;;;;;;;5.37;1.87;;;19.70;69.70;;;;;;6133099;23;20021;-88
2023/08/01 06:03:11;;;;;;;5.88;1.58;;;19.80;69.90;;;;;;6108591;23;20059;-88
2023/08/01 06:05:38;;;;;;;7.35;1.70;;;19.80;69.50;;;;;;6132506;23;20072;-88
2023/08/01 06:08:07;;;;;;;5.13;1.80;;;19.90;70.00;;;;;;6108223;23;20041;-88
2023/08/01 06:10:36;;;;;;;6.45;2.05;;;19.90;69.60;;;;;;6132514;23;20017;-88
2023/08/01 06:13:03;;;;;;;6.03;1.70;;;19.90;69.60;;;;;;6132716;23;20448;-89
2023/08/01 06:15:30;;;;;;;5.65;1.90;;;19.90;69.80;;;;;;6132519;23;20356;-88
2023/08/01 06:17:57;;;;;;;7.03;1.70;;;20.00;70.10;;;;;;6108326;23;20029;-88
2023/08/01 06:20:24;;;;;;;5.22;1.50;;;20.00;69.70;;;;;;6133152;23;20021;-88
2023/08/01 06:22:51;;;;;;;6.65;1.80;;;20.00;69.90;;;;;;6132532;23;20014;-88
2023/08/01 06:25:19;;;;;;;4.90;1.60;;;20.10;70.00;;;;;;6132990;23;20021;-88
2023/08/01 06:27:46;;;;;;;6.18;1.98;;;20.10;69.70;;;;;;6133272;23;20017;-88
2023/08/01 06:30:13;;;;;;;6.15;1.77;;;20.10;70.20;;;;;;6132058;23;20056;-88
2023/08/01 06:32:40;;;;;;;6.63;1.80;;;20.20;69.40;;;;;;6108238;23;20021;-88
2023/08/01 06:35:07;;;;;;;6.45;1.90;;;20.30;69.40;;;;;;6132927;23;20053;-88
2023/08/01 06:37:35;;;;;;;9.43;2.23;;;20.40;69.80;;;;;;6107947;23;20032;-88
2023/08/01 06:40:02;;;;;;;5.43;1.90;;;20.40;69.40;;;;;;6132514;23;20361;-88
2023/08/01 06:42:30;;;;;;;6.03;2.05;;;20.50;69.60;;;;;;6132054;23;20052;-88
2023/08/01 06:44:57;;;;;;;9.02;2.42;;;20.50;69.10;;;;;;6132184;23;20049;-88
2023/08/01 06:47:24;;;;;;;7.05;2.00;;;20.50;68.80;;;;;;6108028;23;20081;-88
2023/08/01 06:49:51;;;;;;;6.43;1.90;;;20.60;69.70;;;;;;6131817;23;20026;-88
2023/08/01 06:52:18;;;;;;;6.75;1.95;;;20.70;69.00;;;;;;6131892;23;20052;-88
2023/08/01 06:54:45;;;;;;;6.82;2.03;;;20.80;69.40;;;;;;6132329;23;20049;-88
2023/08/01 06:57:12;;;;;;;6.88;2.13;;;20.90;69.20;;;;;;6132745;23;20076;-88
2023/08/01 06:59:39;;;;;;;4.93;1.90;;;21.10;68.90;;;;;;6132165;23;20018;-88
2023/08/01 07:02:08;;;;;;;7.30;2.07;;;21.20;69.20;;;;;;6131941;23;20022;-88
2023/08/01 07:04:35;;;;;;;7.25;1.88;;;21.50;68.80;;;;;;6132038;23;20017;-88
2023/08/01 07:07:03;;;;;;;5.97;2.05;;;21.80;68.00;;;;;;6107109;23;20045;-88
2023/08/01 07:09:32;;;;;;;7.13;2.00;;;22.10;67.30;;;;;;6131771;23;20123;-88
2023/08/01 07:11:59;;;;;;;7.40;2.22;;;22.20;67.20;;;;;;6107262;23;20464;-88
2023/08/01 07:14:26;;;;;;;9.27;3.30;;;22.30;66.40;;;;;;6131991;23;20017;-88
2023/08/01 07:16:54;;;;;;;5.63;1.70;;;22.50;67.50;;;;;;6131837;23;20052;-88
2023/08/01 07:19:21;;;;;;;6.13;1.90;;;22.50;67.10;;;;;;6132548;23;20037;-88
2023/08/01 07:21:49;;;;;;;6.82;2.60;;;22.50;66.80;;;;;;6132632;23;20048;-88
2023/08/01 07:24:16;;;;;;;6.20;2.20;;;22.30;66.70;;;;;;6132224;23;20475;-88
2023/08/01 07:26:43;;;;;;;6.43;1.80;;;22.20;67.50;;;;;;6131642;23;20029;-88
2023/08/01 07:29:11;;;;;;;9.38;2.10;;;22.10;66.90;;;;;;6131415;23;20017;-88
2023/08/01 07:31:38;;;;;;;4.82;1.95;;;22.10;67.90;;;;;;6107274;23;20044;-88
2023/08/01 07:34:05;;;;;;;6.60;2.30;;;22.00;68.00;;;;;;6131767;23;20029;-88
2023/08/01 07:36:32;;;;;;;6.15;2.15;;;22.00;67.60;;;;;;6131362;23;20341;-88
2023/08/01 07:38:59;;;;;;;6.10;2.57;;;22.00;67.30;;;;;;6107812;23;20032;-88
2023/08/01 07:41:27;;;;;;;7.03;2.30;;;21.90;67.90;;;;;;6131859;23;20028;-88
2023/08/01 07:43:54;;;;;;;5.82;2.60;;;22.00;68.50;;;;;;6131766;23;20024;-88
2023/08/01 07:46:21;;;;;;;11.95;3.30;;;22.00;68.70;;;;;;6131823;23;20024;-88
2023/08/01 07:48:49;;;;;;;9.18;3.30;;;22.10;68.80;;;;;;6107081;23;20028;-88
2023/08/01 07:51:16;;;;;;;6.83;2.70;;;22.20;68.40;;;;;;6131996;23;20095;-88
2023/08/01 07:53:43;;;;;;;10.85;3.00;;;22.30;68.50;;;;;;6131544;23;20025;-88
2023/08/01 07:56:10;;;;;;;10.85;3.15;;;22.50;67.60;;;;;;6131245;23;20025;-88
2023/08/01 07:58:37;;;;;;;12.98;3.00;;;22.60;66.70;;;;;;6131125;23;20021;-88
2023/08/01 08:01:05;;;;;;;9.43;3.03;;;22.70;65.70;;;;;;6131054;23;20124;-88
2023/08/01 08:03:33;;;;;;;6.57;2.27;;;22.90;66.00;;;;;;6131677;23;20055;-88
2023/08/01 08:06:00;;;;;;;8.77;2.15;;;23.00;63.50;;;;;;6132019;23;20017;-88
2023/08/01 08:08:27;;;;;;;6.10;2.17;;;23.10;63.10;;;;;;6132198;23;20352;-88
2023/08/01 08:10:55;;;;;;;7.97;2.72;;;23.10;63.50;;;;;;6131938;23;20017;-88
2023/08/01 08:13:22;;;;;;;7.38;2.25;;;23.20;63.90;;;;;;6107555;23;20040;-88
2023/08/01 08:15:49;;;;;;;6.17;2.03;;;23.30;63.10;;;;;;6132072;23;20028;-88
2023/08/01 08:18:18;;;;;;;8.30;1.88;;;23.30;61.80;;;;;;6131839;23;20068;-88
2023/08/01 08:20:46;;;;;;;12.77;2.33;;;23.40;62.10;;;;;;6132261;23;20025;-88
2023/08/01 08:23:16;;;;;;;14.38;2.53;;;23.40;61.50;;;;;;6107379;23;20104;-88
2023/08/01 08:25:52;;;;;;;12.10;3.08;;;23.50;62.20;;;;;;6107447;23;20344;-88
2023/08/01 08:28:30;;;;;;;14.17;2.77;;;23.60;62.20;;;;;;6131764;23;20076;-88
2023/08/01 08:30:59;;;;;;;10.63;2.10;;;23.60;61.90;;;;;;6108102;23;20463;-88
2023/08/01 08:33:26;;;;;;;8.88;2.25;;;23.60;59.80;;;;;;6131922;23;20451;-88
2023/08/01 08:35:53;;;;;;;6.40;1.90;;;23.60;60.20;;;;;;6107487;23;20030;-88
2023/08/01 08:38:20;;;;;;;8.23;1.90;;;23.60;60.80;;;;;;6107431;23;20052;-88
2023/08/01 08:41:07;;;;;;;8.50;1.80;;;23.60;60.80;;;;;;6131793;23;20387;-88
2023/08/01 08:43:34;;;;;;;8.45;2.45;;;23.60;60.40;;;;;;6107660;23;20013;-88
2023/08/01 08:46:04;;;;;;;9.95;1.80;;;23.70;59.80;;;;;;6131802;23;20021;-88
2023/08/01 08:48:32;;;;;;;8.00;2.00;;;23.70;59.60;;;;;;6131643;23;20084;-88
2023/08/01 08:51:01;;;;;;;6.40;1.63;;;23.60;58.40;;;;;;6131382;23;20028;-88
2023/08/01 08:53:29;;;;;;;6.47;1.80;;;23.50;58.60;;;;;;6131794;23;20021;-88
2023/08/01 08:55:56;;;;;;;6.20;2.00;;;23.60;58.90;;;;;;6107502;23;20460;-88
2023/08/01 08:58:23;;;;;;;8.55;1.90;;;23.60;59.50;;;;;;6131633;23;20022;-88
2023/08/01 09:00:51;;;;;;;8.82;2.00;;;23.60;60.20;;;;;;6131567;23;20032;-88
2023/08/01 09:03:19;;;;;;;6.43;2.10;;;23.50;58.20;;;;;;6107400;23;20024;-88
2023/08/01 09:05:58;;;;;;;8.97;1.97;;;23.50;57.70;;;;;;6131691;23;20049;-88
2023/08/01 09:08:28;;;;;;;5.60;2.00;;;23.40;57.70;;;;;;6107204;23;20117;-88
2023/08/01 09:10:55;;;;;;;7.47;2.10;;;23.40;58.10;;;;;;6107323;23;20022;-88
2023/08/01 09:13:22;;;;;;;5.65;1.77;;;23.40;59.00;;;;;;6131731;23;20337;-88
2023/08/01 09:15:50;;;;;;;6.85;1.63;;;23.40;59.00;;;;;;6132604;23;20056;-88
2023/08/01 09:18:17;;;;;;;7.23;1.80;;;23.40;59.60;;;;;;6133566;23;20105;-88
2023/08/01 09:20:46;;;;;;;6.90;1.70;;;23.40;58.90;;;;;;6109186;23;20025;-88
2023/08/01 09:23:14;;;;;;;6.80;1.90;;;23.40;59.60;;;;;;6109004;23;20052;-88
2023/08/01 09:25:42;;;;;;;5.50;1.67;;;23.40;59.50;;;;;;6109514;23;20024;-87
2023/08/01 09:28:16;;;;;;;8.10;2.10;;;23.30;60.20;;;;;;6109201;23;20024;-87
2023/08/01 09:30:55;;;;;;;8.07;1.70;;;23.20;59.70;;;;;;6109269;23;20025;-88
2023/08/01 09:33:22;;;;;;;5.35;1.90;;;23.10;60.20;;;;;;6109109;23;20022;-88
2023/08/01 09:35:50;;;;;;;6.18;2.03;;;23.10;60.30;;;;;;6109157;23;20471;-88
2023/08/01 09:38:18;;;;;;;7.93;2.08;;;23.10;61.30;;;;;;6133199;23;20470;-88
2023/08/01 09:40:46;;;;;;;7.15;2.20;;;23.10;62.40;;;;;;6109272;23;20400;-88
2023/08/01 09:43:14;;;;;;;5.67;1.90;;;23.10;63.20;;;;;;6109365;23;20029;-88
2023/08/01 09:45:54;;;;;;;7.32;2.08;;;23.00;64.30;;;;;;6133172;23;20444;-88
2023/08/01 09:48:27;;;;;;;6.47;1.88;;;23.00;65.10;;;;;;6133389;23;20415;-87
2023/08/01 09:51:05;;;;;;;7.18;2.05;;;22.80;65.20;;;;;;6133293;23;20053;-88
2023/08/01 09:53:33;;;;;;;5.90;2.17;;;22.70;66.20;;;;;;6133143;23;20039;-88
2023/08/01 09:56:01;;;;;;;7.93;2.23;;;22.60;67.00;;;;;;6133008;23;20117;-88
2023/08/01 09:58:33;;;;;;;18.88;4.68;;;22.40;68.40;;;;;;6109081;23;20112;-88
2023/08/01 10:01:01;;;;;;;9.98;2.97;;;22.10;69.70;;;;;;6133480;23;20022;-88
2023/08/01 10:03:29;;;;;;;11.23;3.28;;;21.90;69.60;;;;;;6132954;23;20022;-88
2023/08/01 10:05:57;;;;;;;10.18;3.50;;;21.60;70.60;;;;;;6133391;23;20510;-88
2023/08/01 10:08:25;;;;;;;10.93;3.40;;;21.50;71.20;;;;;;6133438;23;20028;-88
2023/08/01 10:10:56;;;;;;;8.07;2.45;;;21.30;71.70;;;;;;6132868;23;20444;-88
2023/08/01 10:13:27;;;;;;;7.28;2.72;;;21.30;71.50;;;;;;6133128;23;20022;-88
2023/08/01 10:15:55;;;;;;;8.98;3.00;;;21.40;72.10;;;;;;6108667;23;20021;-88
2023/08/01 10:18:23;;;;;;;9.80;2.80;;;21.30;73.20;;;;;;6133218;23;20025;-88
2023/08/01 10:20:52;;;;;;;7.83;2.70;;;21.30;73.70;;;;;;6109018;23;20068;-88
2023/08/01 10:23:19;;;;;;;7.15;2.40;;;21.20;73.60;;;;;;6132773;23;20108;-88
2023/08/01 10:25:47;;;;;;;7.60;2.65;;;21.20;74.80;;;;;;6108360;23;20021;-88
2023/08/01 10:28:14;;;;;;;7.88;2.28;;;21.20;75.50;;;;;;6132941;23;20025;-89
2023/08/01 10:30:41;;;;;;;7.95;2.42;;;21.10;75.40;;;;;;6133135;23;20018;-88
2023/08/01 10:33:12;;;;;;;6.63;2.70;;;21.00;76.20;;;;;;6108812;23;20080;-88
2023/08/01 10:35:40;;;;;;;6.28;2.63;;;20.80;76.70;;;;;;6109115;23;20018;-88
2023/08/01 10:38:09;;;;;;;9.13;2.85;;;20.60;77.10;;;;;;6132923;23;20021;-89
2023/08/01 10:40:42;;;;;;;8.35;2.85;;;20.50;77.80;;;;;;6133081;23;20025;-88
2023/08/01 10:43:24;;;;;;;6.20;2.47;;;20.40;78.00;;;;;;6132583;23;20028;-88
2023/08/01 10:46:04;;;;;;;6.63;2.73;;;20.40;78.80;;;;;;6133099;23;20013;-89
2023/08/01 10:48:31;;;;;;;7.45;3.10;;;20.30;78.70;;;;;;6133093;23;20018;-88
2023/08/01 10:50:59;;;;;;;8.27;2.95;;;20.20;78.50;;;;;;6108436;23;20032;-88
2023/08/01 10:53:26;;;;;;;7.72;2.92;;;20.20;79.10;;;;;;6132991;23;20040;-88
2023/08/01 10:55:53;;;;;;;7.68;2.72;;;20.20;78.50;;;;;;6132733;23;20032;-88
2023/08/01 10:58:26;;;;;;;8.17;2.50;;;20.30;78.30;;;;;;6108803;23;20022;-88
2023/08/01 11:01:00;;;;;;;7.28;2.60;;;20.30;76.60;;;;;;6132801;23;20025;-88
2023/08/01 11:03:38;;;;;;;9.63;2.63;;;20.40;75.40;;;;;;6132493;23;20041;-88
2023/08/01 11:06:05;;;;;;;8.48;2.20;;;20.50;75.90;;;;;;6108722;23;20018;-88
2023/08/01 11:08:40;;;;;;;9.75;2.60;;;20.60;75.20;;;;;;6132648;23;20092;-88
2023/08/01 11:11:11;;;;;;;8.03;2.60;;;20.60;74.80;;;;;;6108364;23;20014;-88
2023/08/01 11:13:41;;;;;;;11.35;2.30;;;20.70;74.40;;;;;;6108942;23;20028;-88
2023/08/01 11:16:12;;;;;;;8.50;2.58;;;20.70;73.70;;;;;;6132647;23;20033;-89
2023/08/01 11:18:43;;;;;;;6.50;2.05;;;20.60;74.40;;;;;;6132482;23;20396;-88
2023/08/01 11:21:10;;;;;;;7.72;3.03;;;20.60;75.50;;;;;;6132247;23;20022;-88
2023/08/01 11:23:37;;;;;;;7.23;2.70;;;20.60;75.70;;;;;;6108172;23;20056;-88
2023/08/01 11:26:08;;;;;;;7.38;2.33;;;20.60;75.80;;;;;;6132280;23;20017;-88
2023/08/01 11:28:36;;;;;;;6.93;2.45;;;20.50;73.90;;;;;;6132311;23;20028;-88
2023/08/01 11:31:12;;;;;;;5.68;2.20;;;20.50;74.60;;;;;;6132726;23;20348;-88
2023/08/01 11:33:40;;;;;;;5.70;2.33;;;20.40;74.20;;;;;;6132424;23;20021;-88
2023/08/01 11:36:09;;;;;;;6.20;2.97;;;20.30;73.60;;;;;;6108356;23;20029;-88
2023/08/01 11:38:36;;;;;;;7.00;2.88;;;20.40;75.50;;;;;;6132084;23;20025;-88
2023/08/01 11:41:04;;;;;;;8.20;3.03;;;20.50;76.50;;;;;;6107651;23;20029;-88
2023/08/01 11:43:42;;;;;;;6.30;3.10;;;20.50;77.20;;;;;;6132306;23;20544;-88
2023/08/01 11:46:10;;;;;;;5.70;2.90;;;20.40;77.60;;;;;;6132019;23;20076;-88
2023/08/01 11:48:37;;;;;;;6.43;2.90;;;20.30;78.00;;;;;;6132213;23;20024;-89
2023/08/01 11:51:04;;;;;;;6.53;2.63;;;20.20;78.40;;;;;;6107642;23;20460;-89
2023/08/01 11:53:38;;;;;;;7.88;2.92;;;20.00;79.50;;;;;;6132250;23;20049;-88
2023/08/01 11:56:06;;;;;;;6.20;2.83;;;20.00;79.10;;;;;;6108307;23;20032;-88
2023/08/01 11:58:36;;;;;;;6.15;3.10;;;20.00;79.80;;;;;;6108038;23;20100;-89
2023/08/01 12:01:13;;;;;;;6.93;2.97;;;20.00;80.10;;;;;;6132024;23;20490;-89
2023/08/01 12:03:52;;;;;;;5.50;2.83;;;19.90;79.90;;;;;;6132102;23;20021;-89
2023/08/01 12:06:22;;;;;;;6.43;2.47;;;19.80;80.00;;;;;;6132242;23;20104;-89
2023/08/01 12:08:52;;;;;;;5.10;2.53;;;19.70;80.50;;;;;;6132354;23;20040;-88
2023/08/01 12:11:23;;;;;;;6.90;2.83;;;19.60;80.30;;;;;;6132204;23;20021;-88
2023/08/01 12:14:15;;;;;;;6.50;2.47;;;19.70;80.60;;;;;;6132192;23;20045;-88
2023/08/01 12:16:47;;;;;;;5.13;2.20;;;19.80;80.20;;;;;;6132086;23;20080;-88
2023/08/01 12:19:19;;;;;;;4.82;2.00;;;19.90;79.30;;;;;;6132035;23;20025;-88
2023/08/01 12:21:47;;;;;;;5.65;2.53;;;19.80;79.50;;;;;;6132071;23;20017;-88
2023/08/01 12:24:14;;;;;;;5.78;2.70;;;19.70;79.70;;;;;;6131751;23;20021;-88
2023/08/01 12:26:41;;;;;;;5.63;2.57;;;19.80;79.80;;;;;;6132259;23;20473;-89
2023/08/01 12:29:10;;;;;;;7.45;2.67;;;19.70;79.80;;;;;;6131887;23;20100;-89
2023/08/01 12:31:37;;;;;;;4.57;2.22;;;19.70;80.00;;;;;;6132039;23;20018;-89
2023/08/01 12:34:04;;;;;;;5.50;1.95;;;19.60;79.60;;;;;;6108057;23;20100;-89
2023/08/01 12:36:31;;;;;;;6.43;2.72;;;19.50;79.30;;;;;;6107699;23;20095;-89
2023/08/01 12:38:58;;;;;;;7.57;2.93;;;19.40;79.90;;;;;;6131873;23;20025;-89
2023/08/01 12:41:26;;;;;;;7.50;2.72;;;19.40;81.20;;;;;;6131892;23;20013;-89
2023/08/01 12:43:53;;;;;;;7.30;2.70;;;19.50;80.70;;;;;;6131959;23;20017;-88
2023/08/01 12:46:20;;;;;;;6.55;2.65;;;19.50;80.30;;;;;;6131893;23;20045;-89
2023/08/01 12:48:47;;;;;;;7.28;2.90;;;19.60;80.20;;;;;;6131982;23;20017;-89
2023/08/01 12:51:14;;;;;;;6.57;2.67;;;19.70;80.10;;;;;;6131800;23;20021;-89